Time;durP1;ratioP1;P1;durP2;ratioP2;P2;SDS_P1;SDS_P2;PMS_P1;PMS_P2;Temp;Humidity;BMP_temperature;BMP_pressure;BME280_temperature;BME280_humidity;BME280_pressure;Samples;Min_cycle;Max_cycle;Signal;HPM_P1;HPM_P2
2022/04/13 00:01:36;;;;;;;;;;;;;;;22.89;36.12;101132.19;5051997;28;19916;-77
2022/04/13 00:04:01;;;;;;;;;;;;;;;22.80;36.56;101133.97;5051008;28;19917;-77
2022/04/13 00:06:26;;;;;;;;;;;;;;;22.86;35.99;101143.75;5051642;28;20376;-76
2022/04/13 00:08:55;;;;;;;;;;;;;;;22.25;37.25;101137.56;5051498;28;19979;-78
2022/04/13 00:11:21;;;;;;;;;;;;;;;22.78;35.79;101129.94;5051640;28;19924;-75
2022/04/13 00:13:46;;;;;;;;;;;;;;;23.00;35.50;101132.81;5083988;28;19916;-76
2022/04/13 00:16:11;;;;;;;;;;;;;;;22.66;36.40;101139.41;5053204;28;19924;-76
2022/04/13 00:18:38;;;;;;;;;;;;;;;22.96;35.82;101138.09;5051464;28;20337;-77
2022/04/13 00:21:03;;;;;;;;;;;;;;;23.14;35.46;101148.22;5051132;28;19917;-76
2022/04/13 00:23:29;;;;;;;;;;;;;;;23.23;35.50;101148.34;5048969;28;19966;-76
2022/04/13 00:25:54;;;;;;;;;;;;;;;23.11;35.70;101146.09;5053499;28;19920;-74
2022/04/13 00:28:19;;;;;;;;;;;;;;;23.10;35.85;101155.41;5055661;28;19927;-75
2022/04/13 00:30:44;;;;;;;;;;;;;;;23.12;35.22;101153.19;5054721;28;20347;-75
2022/04/13 00:33:10;;;;;;;;;;;;;;;22.99;35.80;101148.47;5054989;28;19934;-76
2022/04/13 00:35:37;;;;;;;;;;;;;;;23.13;35.61;101154.00;5054655;28;19916;-77
2022/04/13 00:38:02;;;;;;;;;;;;;;;22.98;35.74;101156.97;5054941;28;19912;-77
2022/04/13 00:40:27;;;;;;;;;;;;;;;22.86;36.12;101145.69;5054858;28;19920;-76
2022/04/13 00:42:53;;;;;;;;;;;;;;;22.66;36.47;101141.38;5054558;28;19917;-77
2022/04/13 00:45:18;;;;;;;;;;;;;;;22.65;37.12;101135.06;5053185;28;19939;-76
2022/04/13 00:47:44;;;;;;;;;;;;;;;22.45;37.16;101143.53;5052952;28;19912;-75
2022/04/13 00:50:10;;;;;;;;;;;;;;;22.55;36.84;101146.13;5052427;28;19912;-77
2022/04/13 00:52:37;;;;;;;;;;;;;;;22.57;37.06;101154.91;5053418;28;19913;-75
2022/04/13 00:55:06;;;;;;;;;;;;;;;22.41;37.93;101149.91;5053852;28;19920;-76
2022/04/13 00:57:34;;;;;;;;;;;;;;;22.42;37.07;101157.03;5053996;28;19916;-76
2022/04/13 01:00:04;;;;;;;;;;;;;;;22.42;37.15;101152.38;5054579;28;19924;-76
2022/04/13 01:02:30;;;;;;;;;;;;;;;22.31;37.52;101161.03;5054451;28;19920;-76
2022/04/13 01:04:57;;;;;;;;;;;;;;;22.34;37.03;101161.25;5054272;28;19912;-76
2022/04/13 01:07:23;;;;;;;;;;;;;;;22.22;37.27;101160.88;5054738;28;20442;-74
2022/04/13 01:09:49;;;;;;;;;;;;;;;22.27;37.55;101160.78;5054256;28;20284;-77
2022/04/13 01:12:14;;;;;;;;;;;;;;;22.17;37.72;101162.88;5055921;28;19917;-78
2022/04/13 01:14:39;;;;;;;;;;;;;;;22.12;37.71;101171.13;5054191;28;19917;-77
2022/04/13 01:17:06;;;;;;;;;;;;;;;22.20;37.57;101170.47;5054425;28;19932;-76
2022/04/13 01:19:32;;;;;;;;;;;;;;;22.15;37.37;101170.56;5054373;28;19900;-77
2022/04/13 01:22:03;;;;;;;;;;;;;;;22.17;37.73;101179.28;5052653;28;20396;-75
2022/04/13 01:24:29;;;;;;;;;;;;;;;22.12;37.45;101174.69;5086316;28;19928;-76
2022/04/13 01:26:55;;;;;;;;;;;;;;;22.11;38.24;101186.72;5054009;28;20420;-75
2022/04/13 01:29:20;;;;;;;;;;;;;;;22.11;37.65;101181.25;5053830;28;19916;-76
2022/04/13 01:31:45;;;;;;;;;;;;;;;22.07;37.74;101184.88;5054424;28;19963;-78
2022/04/13 01:34:11;;;;;;;;;;;;;;;22.15;38.15;101187.78;5053712;28;20495;-77
2022/04/13 01:36:37;;;;;;;;;;;;;;;22.17;37.73;101188.28;5052765;28;19974;-76
2022/04/13 01:39:03;;;;;;;;;;;;;;;22.25;37.80;101190.38;5051874;28;19912;-77
2022/04/13 01:41:28;;;;;;;;;;;;;;;22.17;38.10;101198.44;5053101;28;19966;-76
2022/04/13 01:43:53;;;;;;;;;;;;;;;22.18;37.64;101192.69;5053646;28;19913;-77
2022/04/13 01:46:18;;;;;;;;;;;;;;;22.20;37.40;101198.69;5053904;28;20005;-76
2022/04/13 01:48:44;;;;;;;;;;;;;;;22.00;37.70;101195.38;5053534;28;19917;-76
2022/04/13 01:51:09;;;;;;;;;;;;;;;22.08;38.10;101200.19;5053424;28;19912;-77
2022/04/13 01:53:35;;;;;;;;;;;;;;;22.08;37.97;101206.50;5053381;28;20423;-75
2022/04/13 01:56:00;;;;;;;;;;;;;;;21.87;37.81;101213.31;5051583;28;19914;-76
2022/04/13 01:58:25;;;;;;;;;;;;;;;21.89;38.32;101218.50;5054256;28;20008;-75
2022/04/13 02:00:54;;;;;;;;;;;;;;;21.79;38.46;101212.00;5053373;28;20388;-77
2022/04/13 02:03:23;;;;;;;;;;;;;;;21.59;38.42;101222.34;5052780;28;20395;-76
2022/04/13 02:05:49;;;;;;;;;;;;;;;21.86;38.15;101214.41;5052975;28;20007;-76
2022/04/13 02:08:14;;;;;;;;;;;;;;;21.58;38.73;101215.25;5055012;28;20462;-76
2022/04/13 02:10:40;;;;;;;;;;;;;;;21.67;38.35;101228.00;5054302;28;19991;-76
2022/04/13 02:13:05;;;;;;;;;;;;;;;21.63;37.92;101221.47;5052979;28;19947;-76
2022/04/13 02:15:30;;;;;;;;;;;;;;;21.63;37.89;101229.69;5053111;28;19928;-76
2022/04/13 02:17:55;;;;;;;;;;;;;;;21.47;38.82;101230.94;5053175;28;19995;-78
2022/04/13 02:20:20;;;;;;;;;;;;;;;21.41;39.05;101228.50;5052247;28;19948;-75
2022/04/13 02:22:46;;;;;;;;;;;;;;;21.69;38.42;101238.66;5052683;28;19928;-76
2022/04/13 02:25:12;;;;;;;;;;;;;;;21.67;38.51;101249.06;5052389;28;20229;-77
2022/04/13 02:27:37;;;;;;;;;;;;;;;21.10;39.50;101255.31;5052095;28;19916;-75
2022/04/13 02:30:03;;;;;;;;;;;;;;;21.07;39.75;101250.38;5052087;28;19956;-76
2022/04/13 02:32:28;;;;;;;;;;;;;;;21.57;38.72;101249.16;5052298;28;19921;-76
2022/04/13 02:34:53;;;;;;;;;;;;;;;21.27;39.11;101244.78;5052175;28;19965;-77
2022/04/13 02:37:18;;;;;;;;;;;;;;;20.98;39.78;101243.88;5052883;28;20364;-75
2022/04/13 02:39:46;;;;;;;;;;;;;;;21.31;39.34;101243.09;5052263;28;20277;-76
2022/04/13 02:42:14;;;;;;;;;;;;;;;21.47;38.76;101247.34;5050837;28;19959;-76
2022/04/13 02:44:40;;;;;;;;;;;;;;;21.26;39.07;101245.88;5052095;28;19913;-76
2022/04/13 02:47:05;;;;;;;;;;;;;;;21.41;38.96;101244.94;5051924;28;19920;-75
2022/04/13 02:49:31;;;;;;;;;;;;;;;21.36;39.08;101244.97;5052083;28;20319;-76
2022/04/13 02:51:56;;;;;;;;;;;;;;;21.40;39.04;101248.78;5051819;28;19917;-77
2022/04/13 02:54:21;;;;;;;;;;;;;;;21.22;38.62;101242.09;5052432;28;19974;-76
2022/04/13 02:56:46;;;;;;;;;;;;;;;21.33;38.56;101251.84;5052448;28;19924;-75
2022/04/13 02:59:11;;;;;;;;;;;;;;;20.96;39.92;101259.75;5052134;28;19983;-76
2022/04/13 03:01:37;;;;;;;;;;;;;;;20.99;40.43;101259.19;5052684;28;19919;-76
2022/04/13 03:04:02;;;;;;;;;;;;;;;21.09;39.64;101266.53;5052409;28;19922;-76
2022/04/13 03:06:27;;;;;;;;;;;;;;;20.97;39.95;101264.91;5052487;28;19921;-76
2022/04/13 03:08:52;;;;;;;;;;;;;;;20.81;39.98;101271.56;5051839;28;19951;-75
2022/04/13 03:11:18;;;;;;;;;;;;;;;20.80;39.72;101272.69;5051556;28;19939;-75
2022/04/13 03:13:43;;;;;;;;;;;;;;;20.58;39.67;101263.25;5052025;28;20364;-76
2022/04/13 03:16:08;;;;;;;;;;;;;;;20.66;40.39;101268.09;5051459;28;19928;-76
2022/04/13 03:18:33;;;;;;;;;;;;;;;20.54;40.69;101282.09;5051700;28;20003;-76
2022/04/13 03:20:59;;;;;;;;;;;;;;;20.54;39.96;101273.91;5050053;28;19938;-76
2022/04/13 03:23:24;;;;;;;;;;;;;;;20.51;40.95;101281.84;5050455;28;19927;-75
2022/04/13 03:25:49;;;;;;;;;;;;;;;20.44;39.87;101287.59;5051666;28;19913;-77
2022/04/13 03:28:16;;;;;;;;;;;;;;;20.45;40.37;101286.53;5051549;28;19916;-77
2022/04/13 03:30:41;;;;;;;;;;;;;;;20.34;39.89;101281.38;5051381;28;19951;-76
2022/04/13 03:33:06;;;;;;;;;;;;;;;20.36;40.17;101280.03;5049510;28;19920;-75
2022/04/13 03:35:31;;;;;;;;;;;;;;;20.41;40.22;101287.34;5051376;28;20304;-75
2022/04/13 03:37:57;;;;;;;;;;;;;;;20.36;39.59;101287.38;5051190;28;19982;-75
2022/04/13 03:40:23;;;;;;;;;;;;;;;20.47;40.29;101286.22;5051168;28;19917;-76
2022/04/13 03:42:48;;;;;;;;;;;;;;;20.28;39.76;101286.06;5049569;28;19943;-77
2022/04/13 03:45:13;;;;;;;;;;;;;;;20.36;39.87;101284.66;5051378;28;19920;-77
2022/04/13 03:47:39;;;;;;;;;;;;;;;20.39;39.97;101293.09;5051505;28;19913;-76
2022/04/13 03:50:06;;;;;;;;;;;;;;;20.35;39.63;101288.47;5050533;28;20385;-76
2022/04/13 03:52:35;;;;;;;;;;;;;;;20.26;39.75;101295.59;5052620;28;19908;-75
2022/04/13 03:55:04;;;;;;;;;;;;;;;20.34;40.79;101290.41;5050864;28;19917;-77
2022/04/13 03:57:29;;;;;;;;;;;;;;;20.31;39.39;101293.66;5050873;28;19912;-76
2022/04/13 03:59:55;;;;;;;;;;;;;;;20.28;39.64;101299.69;5052103;28;19923;-76
2022/04/13 04:02:20;;;;;;;;;;;;;;;20.31;39.78;101303.75;5056521;28;19920;-77
2022/04/13 04:04:45;;;;;;;;;;;;;;;20.30;40.84;101304.88;5048920;28;19964;-76
2022/04/13 04:07:10;;;;;;;;;;;;;;;20.38;41.02;101302.41;5035751;28;19920;-76
2022/04/13 04:09:36;;;;;;;;;;;;;;;20.41;39.85;101307.28;5035027;28;19917;-76
2022/04/13 04:12:01;;;;;;;;;;;;;;;20.41;40.38;101311.91;5035314;28;19917;-75
2022/04/13 04:14:27;;;;;;;;;;;;;;;20.45;40.88;101307.53;5034999;28;19917;-76
2022/04/13 04:16:52;;;;;;;;;;;;;;;20.48;40.53;101313.25;5051294;28;20414;-76
2022/04/13 04:19:17;;;;;;;;;;;;;;;20.64;41.10;101309.38;5055902;28;20279;-75
2022/04/13 04:21:42;;;;;;;;;;;;;;;20.77;40.81;101324.34;5054638;28;19924;-76
2022/04/13 04:24:08;;;;;;;;;;;;;;;20.58;41.87;101324.13;5054884;28;19921;-75
2022/04/13 04:26:33;;;;;;;;;;;;;;;20.65;41.30;101323.84;5054892;28;20007;-76
2022/04/13 04:28:58;;;;;;;;;;;;;;;20.66;41.77;101326.28;5055146;28;19962;-74
2022/04/13 04:34:07;;;;;;;;;;;;;;;20.68;41.11;101339.66;5051120;28;20016;-76
2022/04/13 04:36:33;;;;;;;;;;;;;;;20.77;41.42;101336.09;5034586;28;19925;-75
2022/04/13 04:38:58;;;;;;;;;;;;;;;20.51;42.28;101341.91;5032974;28;19921;-76
2022/04/13 04:41:23;;;;;;;;;;;;;;;20.70;41.47;101351.13;5034380;28;19917;-76
2022/04/13 04:43:49;;;;;;;;;;;;;;;20.85;40.97;101345.63;5034722;28;19921;-76
2022/04/13 04:46:14;;;;;;;;;;;;;;;20.62;42.07;101348.97;5034177;28;19913;-76
2022/04/13 04:48:42;;;;;;;;;;;;;;;20.82;41.30;101357.09;5034136;28;19917;-76
2022/04/13 04:51:07;;;;;;;;;;;;;;;20.82;41.11;101354.34;5034384;28;19917;-76
2022/04/13 04:53:32;;;;;;;;;;;;;;;20.84;40.56;101352.97;5037137;28;20396;-75
2022/04/13 04:55:58;;;;;;;;;;;;;;;20.89;40.82;101355.69;5054034;28;19913;-78
2022/04/13 04:58:24;;;;;;;;;;;;;;;20.91;40.44;101353.47;5054891;28;20311;-76
2022/04/13 05:00:49;;;;;;;;;;;;;;;20.80;40.79;101364.75;5054752;28;20252;-76
2022/04/13 05:03:14;;;;;;;;;;;;;;;20.71;41.02;101358.25;5054382;28;20376;-75
2022/04/13 05:05:41;;;;;;;;;;;;;;;20.70;41.24;101351.13;5048460;28;20342;-76
2022/04/13 05:08:07;;;;;;;;;;;;;;;20.57;41.25;101365.38;5034880;28;19936;-77
2022/04/13 05:10:32;;;;;;;;;;;;;;;20.40;41.76;101368.44;5034385;28;19917;-75
2022/04/13 05:12:58;;;;;;;;;;;;;;;20.39;42.19;101377.72;5034224;28;19921;-76
2022/04/13 05:15:24;;;;;;;;;;;;;;;20.43;42.26;101387.00;5034276;28;19923;-77
2022/04/13 05:17:49;;;;;;;;;;;;;;;20.53;42.19;101386.97;5065750;28;20011;-77
2022/04/13 05:20:14;;;;;;;;;;;;;;;20.49;42.04;101390.53;5034218;28;19916;-76
2022/04/13 05:22:40;;;;;;;;;;;;;;;20.48;41.82;101397.91;5043350;28;19950;-75
2022/04/13 05:25:06;;;;;;;;;;;;;;;20.40;41.87;101400.41;5053875;28;19927;-75
2022/04/13 05:27:32;;;;;;;;;;;;;;;20.30;42.28;101403.97;5053398;28;20384;-75
2022/04/13 05:29:57;;;;;;;;;;;;;;;20.24;41.92;101410.53;5053422;28;20102;-77
2022/04/13 05:32:22;;;;;;;;;;;;;;;20.26;42.31;101410.25;5053257;28;19923;-76
2022/04/13 05:34:47;;;;;;;;;;;;;;;20.27;42.64;101409.97;5052320;28;20019;-75
2022/04/13 05:37:13;;;;;;;;;;;;;;;20.35;42.19;101405.84;5053699;28;19965;-76
2022/04/13 05:39:38;;;;;;;;;;;;;;;20.33;42.11;101413.50;5056623;28;20075;-76
2022/04/13 05:42:04;;;;;;;;;;;;;;;20.42;41.67;101411.84;5059662;28;19913;-75
2022/04/13 05:44:29;;;;;;;;;;;;;;;20.77;41.18;101426.25;5059151;28;19921;-75
2022/04/13 05:46:54;;;;;;;;;;;;;;;20.75;41.40;101417.50;5061668;28;19908;-77
2022/04/13 05:49:19;;;;;;;;;;;;;;;20.77;41.55;101417.22;5063602;28;19936;-76
2022/04/13 05:51:44;;;;;;;;;;;;;;;20.96;41.67;101420.97;5059453;28;19917;-76
2022/04/13 05:54:10;;;;;;;;;;;;;;;21.12;41.01;101427.22;5057953;28;20028;-76
2022/04/13 05:56:35;;;;;;;;;;;;;;;21.14;41.35;101433.22;5055928;28;19916;-74
2022/04/13 05:59:00;;;;;;;;;;;;;;;21.24;41.03;101434.00;5053274;28;19917;-73
2022/04/13 06:01:26;;;;;;;;;;;;;;;21.14;41.83;101438.69;5055745;28;19909;-76
2022/04/13 06:03:51;;;;;;;;;;;;;;;21.35;41.39;101432.00;5056913;28;19912;-76
2022/04/13 06:06:16;;;;;;;;;;;;;;;21.60;41.07;101437.34;5057002;28;20400;-76
2022/04/13 06:08:42;;;;;;;;;;;;;;;21.45;41.17;101440.97;5054901;28;19925;-75
2022/04/13 06:11:07;;;;;;;;;;;;;;;21.39;41.47;101444.84;5057751;28;19912;-75
2022/04/13 06:13:33;;;;;;;;;;;;;;;21.56;41.73;101456.22;5056487;28;19958;-75
2022/04/13 06:15:58;;;;;;;;;;;;;;;21.88;41.23;101458.47;5055228;28;19920;-76
2022/04/13 06:18:23;;;;;;;;;;;;;;;21.69;41.98;101474.75;5055302;28;19917;-76
2022/04/13 06:20:49;;;;;;;;;;;;;;;21.97;41.69;101475.94;5055109;28;19920;-76
2022/04/13 06:23:14;;;;;;;;;;;;;;;21.70;42.23;101479.09;5056748;28;19928;-75
2022/04/13 06:25:58;;;;;;;;;;;;;;;21.91;41.76;101479.81;5055064;28;19912;-76
2022/04/13 06:28:23;;;;;;;;;;;;;;;21.88;42.21;101477.66;5050738;28;19956;-74
2022/04/13 06:30:49;;;;;;;;;;;;;;;21.39;43.02;101485.03;5053395;28;19917;-75
2022/04/13 06:33:14;;;;;;;;;;;;;;;22.03;42.01;101482.19;5053511;28;19913;-75
2022/04/13 06:35:39;;;;;;;;;;;;;;;21.56;43.14;101485.50;5053323;28;20008;-75
2022/04/13 06:38:05;;;;;;;;;;;;;;;22.27;41.89;101489.38;5052014;28;20483;-74
2022/04/13 06:40:30;;;;;;;;;;;;;;;22.33;41.86;101492.88;5053652;28;19916;-76
2022/04/13 06:42:55;;;;;;;;;;;;;;;22.03;42.49;101496.72;5052890;28;19960;-75
2022/04/13 06:45:21;;;;;;;;;;;;;;;21.70;42.85;101502.91;5051633;28;19917;-76
2022/04/13 06:47:48;;;;;;;;;;;;;;;21.46;43.88;101508.22;5052542;28;19921;-76
2022/04/13 06:50:13;;;;;;;;;;;;;;;20.81;45.35;101511.97;5052626;28;20370;-73
2022/04/13 06:52:39;;;;;;;;;;;;;;;20.86;45.83;101516.63;5054464;28;19949;-75
2022/04/13 06:55:05;;;;;;;;;;;;;;;20.76;45.80;101513.91;5054133;28;19966;-76
2022/04/13 06:57:33;;;;;;;;;;;;;;;21.32;44.37;101517.34;5068794;28;19917;-74
2022/04/13 06:59:58;;;;;;;;;;;;;;;21.66;43.96;101513.59;5034038;28;20000;-74
2022/04/13 07:02:27;;;;;;;;;;;;;;;21.38;44.07;101510.75;5053205;28;20365;-76
2022/04/13 07:04:53;;;;;;;;;;;;;;;21.61;43.75;101519.09;5053032;28;19966;-74
2022/04/13 07:07:18;;;;;;;;;;;;;;;22.17;42.46;101522.31;5049834;28;20007;-76
2022/04/13 07:09:43;;;;;;;;;;;;;;;20.80;46.03;101529.47;5053489;28;19951;-75
2022/04/13 07:12:33;;;;;;;;;;;;;;;21.16;44.97;101527.50;5053025;28;19923;-74
2022/04/13 07:15:00;;;;;;;;;;;;;;;21.65;43.96;101522.91;5046187;28;19916;-75
2022/04/13 07:17:26;;;;;;;;;;;;;;;21.65;44.07;101528.38;5052877;28;19917;-76
2022/04/13 07:19:51;;;;;;;;;;;;;;;21.51;44.17;101521.06;5052734;28;19913;-75
2022/04/13 07:22:16;;;;;;;;;;;;;;;22.01;43.43;101536.41;5053322;28;20000;-73
2022/04/13 07:24:41;;;;;;;;;;;;;;;22.31;42.72;101534.25;5052531;28;19928;-74
2022/04/13 07:27:07;;;;;;;;;;;;;;;22.24;42.45;101532.94;5053152;28;19916;-74
2022/04/13 07:29:32;;;;;;;;;;;;;;;22.03;43.08;101539.69;5053507;28;19924;-74
2022/04/13 07:31:57;;;;;;;;;;;;;;;22.19;42.67;101546.69;5051356;28;19917;-76
2022/04/13 07:34:22;;;;;;;;;;;;;;;21.53;44.50;101552.53;5053845;28;19912;-75
2022/04/13 07:36:48;;;;;;;;;;;;;;;20.80;45.88;101555.97;5054199;28;19944;-75
2022/04/13 07:39:13;;;;;;;;;;;;;;;21.23;45.20;101555.34;5052632;28;19919;-74
2022/04/13 07:41:38;;;;;;;;;;;;;;;22.08;43.07;101562.38;5050562;28;20357;-75
2022/04/13 07:44:03;;;;;;;;;;;;;;;21.39;45.24;101565.16;5054737;28;19915;-76
2022/04/13 07:46:29;;;;;;;;;;;;;;;20.79;46.59;101568.00;5052053;28;19905;-75
2022/04/13 07:48:54;;;;;;;;;;;;;;;20.55;47.85;101577.84;5053398;28;20404;-75
2022/04/13 07:51:19;;;;;;;;;;;;;;;21.18;45.98;101570.97;5054528;28;19940;-76
2022/04/13 07:53:45;;;;;;;;;;;;;;;21.49;45.57;101575.22;5056022;28;20351;-77
2022/04/13 07:56:10;;;;;;;;;;;;;;;21.83;44.46;101577.03;5056869;28;19923;-77
2022/04/13 07:58:35;;;;;;;;;;;;;;;21.84;44.63;101586.88;5055366;28;19924;-78
2022/04/13 08:01:02;;;;;;;;;;;;;;;21.32;45.70;101593.91;5054897;28;19955;-74
2022/04/13 08:03:27;;;;;;;;;;;;;;;21.87;44.38;101587.41;5058589;28;19921;-78
2022/04/13 08:05:52;;;;;;;;;;;;;;;21.58;44.56;101596.25;5059107;28;20409;-76
2022/04/13 08:08:17;;;;;;;;;;;;;;;22.24;43.11;101593.19;5058709;28;19945;-78
2022/04/13 08:10:43;;;;;;;;;;;;;;;22.69;42.11;101590.97;5061563;28;19999;-78
2022/04/13 08:13:08;;;;;;;;;;;;;;;22.30;43.24;101592.06;5058189;28;19928;-77
2022/04/13 08:15:33;;;;;;;;;;;;;;;22.67;42.19;101593.16;5060063;28;19917;-76
2022/04/13 08:17:59;;;;;;;;;;;;;;;23.24;41.47;101586.03;5062319;28;20384;-77
2022/04/13 08:20:24;;;;;;;;;;;;;;;22.78;42.04;101590.34;5060080;28;19923;-76
2022/04/13 08:22:49;;;;;;;;;;;;;;;22.99;41.89;101603.56;5062396;28;19975;-77
2022/04/13 08:25:15;;;;;;;;;;;;;;;22.78;41.87;101595.81;5059216;28;19917;-78
2022/04/13 08:27:40;;;;;;;;;;;;;;;22.83;42.15;101598.50;5059641;28;20334;-77
2022/04/13 08:30:05;;;;;;;;;;;;;;;23.08;41.61;101592.75;5061230;28;20288;-76
2022/04/13 08:32:31;;;;;;;;;;;;;;;23.27;40.78;101593.69;5059884;28;19924;-76
2022/04/13 08:34:56;;;;;;;;;;;;;;;23.12;41.43;101597.38;5060027;28;19913;-75
2022/04/13 08:37:22;;;;;;;;;;;;;;;22.52;43.20;101608.88;5061039;28;20001;-76
2022/04/13 08:39:48;;;;;;;;;;;;;;;22.70;41.87;101608.22;5059209;28;19993;-78
2022/04/13 08:42:52;;;;;;;;;;;;;;;22.84;41.68;101611.91;5059435;28;20364;-76
2022/04/13 08:45:22;;;;;;;;;;;;;;;23.31;40.38;101614.75;4978446;28;19926;-76
2022/04/13 08:47:49;;;;;;;;;;;;;;;23.40;40.33;101613.03;4980158;28;19918;-75
2022/04/13 08:50:14;;;;;;;;;;;;;;;23.06;41.27;101625.97;4978799;28;19950;-76
2022/04/13 08:52:40;;;;;;;;;;;;;;;22.98;41.47;101617.53;4980987;28;19910;-76
2022/04/13 08:55:07;;;;;;;;;;;;;;;24.00;39.35;101616.13;4978671;28;19918;-77
2022/04/13 08:57:53;;;;;;;;;;;;;;;24.11;39.09;101621.22;4980287;28;19917;-76
2022/04/13 09:00:19;;;;;;;;;;;;;;;24.27;38.81;101622.59;4975246;28;20584;-76
2022/04/13 09:02:50;;;;;;;;;;;;;;;24.21;38.86;101626.56;4979013;28;19929;-75
2022/04/13 09:05:27;;;;;;;;;;;;;;;24.13;39.16;101629.16;4975884;28;20009;-76
2022/04/13 09:08:12;;;;;;;;;;;;;;;23.68;39.84;101630.53;4975038;28;19978;-75
2022/04/13 09:10:38;;;;;;;;;;;;;;;22.80;42.15;101632.78;4956658;28;20294;-76
2022/04/13 09:13:04;;;;;;;;;;;;;;;22.40;44.00;101635.81;4950098;28;19982;-74
2022/04/13 09:15:30;;;;;;;;;;;;;;;22.75;43.15;101641.06;4968669;28;20392;-75
2022/04/13 09:17:55;;;;;;;;;;;;;;;24.27;39.51;101644.56;5025142;28;19924;-74
2022/04/13 09:20:21;;;;;;;;;;;;;;;24.04;39.65;101639.97;5026061;28;19921;-76
2022/04/13 09:22:46;;;;;;;;;;;;;;;24.02;40.50;101644.09;5021026;28;20375;-76
2022/04/13 09:25:13;;;;;;;;;;;;;;;23.82;40.52;101631.44;5023804;28;19921;-77
2022/04/13 09:27:39;;;;;;;;;;;;;;;23.30;41.33;101640.53;5028834;28;20421;-76
2022/04/13 09:30:05;;;;;;;;;;;;;;;22.32;43.73;101639.97;5020265;28;20016;-76
2022/04/13 09:32:31;;;;;;;;;;;;;;;22.70;43.15;101644.66;5023115;28;19940;-77
2022/04/13 09:34:56;;;;;;;;;;;;;;;23.79;40.44;101643.00;5029058;28;20584;-75
2022/04/13 09:37:22;;;;;;;;;;;;;;;22.85;42.79;101657.41;5020381;28;19920;-76
2022/04/13 09:39:47;;;;;;;;;;;;;;;23.51;41.36;101647.47;5022130;28;20478;-75
2022/04/13 09:42:13;;;;;;;;;;;;;;;24.63;38.31;101644.84;5021179;28;19922;-76
2022/04/13 09:44:41;;;;;;;;;;;;;;;23.59;38.94;101642.47;5024515;28;19925;-76
2022/04/13 09:47:08;;;;;;;;;;;;;;;22.87;42.20;101641.50;5031427;28;19913;-76
2022/04/13 09:49:33;;;;;;;;;;;;;;;24.09;38.31;101639.09;5054477;28;19916;-77
2022/04/13 09:52:00;;;;;;;;;;;;;;;24.37;38.38;101651.88;5053583;28;19920;-76
2022/04/13 09:54:25;;;;;;;;;;;;;;;24.26;38.22;101644.88;5053499;28;19927;-75
2022/04/13 09:56:51;;;;;;;;;;;;;;;22.67;40.87;101644.41;5053381;28;19920;-73
2022/04/13 09:59:31;;;;;;;;;;;;;;;23.33;39.45;101648.19;5051467;28;19924;-73
2022/04/13 10:01:58;;;;;;;;;;;;;;;24.04;38.36;101642.72;5053535;28;20356;-74
2022/04/13 10:04:30;;;;;;;;;;;;;;;24.55;36.35;101645.53;5053589;28;19920;-74
2022/04/13 10:07:12;;;;;;;;;;;;;;;23.76;37.95;101642.78;5051802;28;19920;-74
2022/04/13 10:09:37;;;;;;;;;;;;;;;24.55;36.84;101650.22;5052595;28;20060;-74
2022/04/13 10:12:03;;;;;;;;;;;;;;;23.45;39.24;101645.88;5052523;28;20017;-75
2022/04/13 10:14:29;;;;;;;;;;;;;;;24.10;38.72;101651.69;5052372;28;19939;-74
2022/04/13 10:16:57;;;;;;;;;;;;;;;23.46;40.48;101654.94;5052623;28;20003;-76
2022/04/13 10:19:22;;;;;;;;;;;;;;;22.55;42.10;101660.34;5052602;28;19955;-75
2022/04/13 10:21:47;;;;;;;;;;;;;;;23.65;37.58;101665.97;5052643;28;19968;-75
2022/04/13 10:24:18;;;;;;;;;;;;;;;23.62;37.45;101659.16;5052469;28;20087;-74
2022/04/13 10:26:59;;;;;;;;;;;;;;;23.89;37.26;101662.09;5050909;28;19916;-74
2022/04/13 10:29:26;;;;;;;;;;;;;;;24.14;36.72;101671.97;5052375;28;19921;-73
2022/04/13 10:32:07;;;;;;;;;;;;;;;24.89;35.58;101675.53;5052743;28;19957;-76
2022/04/13 10:34:33;;;;;;;;;;;;;;;24.36;36.99;101672.22;5053969;28;19991;-76
2022/04/13 10:36:59;;;;;;;;;;;;;;;24.97;35.77;101678.44;5052580;28;19921;-75
2022/04/13 10:39:24;;;;;;;;;;;;;;;24.12;37.18;101676.94;5051863;28;19938;-75
2022/04/13 10:41:49;;;;;;;;;;;;;;;24.07;36.47;101680.59;5051448;28;19928;-74
2022/04/13 10:44:23;;;;;;;;;;;;;;;25.09;35.13;101684.28;5051767;28;19965;-74
2022/04/13 10:46:52;;;;;;;;;;;;;;;24.84;35.48;101686.63;5049484;28;19913;-75
2022/04/13 10:49:21;;;;;;;;;;;;;;;23.66;37.52;101695.88;5052059;28;19924;-74
2022/04/13 10:51:47;;;;;;;;;;;;;;;24.29;36.67;101697.28;5048805;28;20401;-76
2022/04/13 10:54:14;;;;;;;;;;;;;;;24.65;35.56;101700.34;5051153;28;19952;-74
2022/04/13 10:56:42;;;;;;;;;;;;;;;25.41;34.87;101696.41;5049627;28;20225;-76
2022/04/13 10:59:15;;;;;;;;;;;;;;;24.72;36.00;101708.22;5048011;28;19924;-75
2022/04/13 11:01:52;;;;;;;;;;;;;;;24.84;35.88;101716.88;5050636;28;19939;-76
2022/04/13 11:04:18;;;;;;;;;;;;;;;25.61;33.68;101720.81;5050443;28;19923;-77
2022/04/13 11:06:45;;;;;;;;;;;;;;;25.47;34.28;101715.28;5051281;28;20008;-76
2022/04/13 11:09:16;;;;;;;;;;;;;;;25.56;33.63;101718.13;5051122;28;20350;-74
2022/04/13 11:11:43;;;;;;;;;;;;;;;24.43;35.88;101719.38;5050951;28;20279;-76
2022/04/13 11:14:20;;;;;;;;;;;;;;;24.83;35.72;101715.22;5051112;28;19913;-75
2022/04/13 11:16:46;;;;;;;;;;;;;;;25.33;34.18;101719.91;5051951;28;20407;-75
2022/04/13 11:19:11;;;;;;;;;;;;;;;24.60;35.96;101721.59;5050967;28;19952;-76
2022/04/13 11:21:57;;;;;;;;;;;;;;;25.00;35.81;101727.31;5050930;28;19924;-75
2022/04/13 11:24:35;;;;;;;;;;;;;;;26.10;34.06;101730.00;4950240;28;19930;-74
2022/04/13 11:27:01;;;;;;;;;;;;;;;25.25;34.97;101726.09;4950227;29;19922;-75
2022/04/13 11:29:39;;;;;;;;;;;;;;;24.57;36.73;101728.50;4950291;28;19937;-74
2022/04/13 11:32:10;;;;;;;;;;;;;;;24.01;37.39;101727.59;4952670;28;19914;-76
2022/04/13 11:34:41;;;;;;;;;;;;;;;24.26;36.83;101721.81;4953185;29;20371;-76
2022/04/13 11:37:19;;;;;;;;;;;;;;;25.46;35.99;101729.31;4951355;28;19914;-75
2022/04/13 11:39:45;;;;;;;;;;;;;;;24.15;38.06;101728.53;4951541;28;20034;-75
2022/04/13 11:42:14;;;;;;;;;;;;;;;24.34;37.36;101734.88;4949751;28;20316;-74
2022/04/13 11:44:48;;;;;;;;;;;;;;;24.56;37.17;101731.56;4951170;29;20089;-75
2022/04/13 11:47:17;;;;;;;;;;;;;;;24.94;36.07;101730.47;4950274;29;19914;-77
2022/04/13 11:49:56;;;;;;;;;;;;;;;24.22;36.41;101732.56;4949239;29;19919;-75
2022/04/13 11:52:43;;;;;;;;;;;;;;;23.94;38.04;101752.66;4949251;29;19918;-75
2022/04/13 11:55:30;;;;;;;;;;;;;;;23.44;38.62;101753.19;4948820;28;19930;-76
2022/04/13 11:58:04;;;;;;;;;;;;;;;24.09;37.81;101751.69;4948027;29;19915;-76
2022/04/13 12:00:36;;;;;;;;;;;;;;;24.06;37.88;101753.09;4957679;28;19919;-77
2022/04/13 12:03:02;;;;;;;;;;;;;;;24.58;36.90;101754.06;5049975;28;19955;-76
2022/04/13 12:05:27;;;;;;;;;;;;;;;24.07;38.83;101756.66;5047671;28;19939;-77
2022/04/13 12:07:53;;;;;;;;;;;;;;;24.32;37.93;101765.41;5050201;28;19909;-76
2022/04/13 12:10:18;;;;;;;;;;;;;;;24.42;37.11;101764.44;5050160;28;19927;-77
2022/04/13 12:12:52;;;;;;;;;;;;;;;25.76;35.12;101762.63;5050076;28;19912;-77
2022/04/13 12:15:17;;;;;;;;;;;;;;;24.59;38.88;101758.47;5049635;28;19917;-75
2022/04/13 12:17:42;;;;;;;;;;;;;;;24.49;37.85;101758.59;5048414;28;19946;-78
2022/04/13 12:20:08;;;;;;;;;;;;;;;24.50;38.36;101761.06;5049965;28;19970;-75
2022/04/13 12:22:34;;;;;;;;;;;;;;;24.19;38.57;101765.31;5053430;28;20339;-76
2022/04/13 12:25:02;;;;;;;;;;;;;;;24.96;37.41;101770.28;5055051;28;19988;-77
2022/04/13 12:27:27;;;;;;;;;;;;;;;24.49;38.54;101764.91;5054351;28;19916;-77
2022/04/13 12:30:07;;;;;;;;;;;;;;;24.72;38.42;101769.56;5053981;28;19925;-78
2022/04/13 12:32:33;;;;;;;;;;;;;;;23.95;39.65;101767.19;5053735;28;19917;-75
2022/04/13 12:34:58;;;;;;;;;;;;;;;24.51;39.07;101764.63;5052382;28;20368;-75
2022/04/13 12:37:23;;;;;;;;;;;;;;;24.02;39.37;101770.44;5055080;28;19932;-77